createdAt,value
2019-01-20T07:21:14.885Z,6.07
2019-01-20T07:26:18.662Z,7.07
2019-01-20T07:31:22.396Z,6.67
2019-01-20T07:36:26.122Z,6.83
2019-01-20T07:41:30.532Z,7.03
2019-01-20T07:46:34.264Z,7.10
2019-01-20T07:51:38.003Z,7.45
2019-01-20T07:56:41.727Z,6.60
2019-01-20T08:01:45.540Z,7.40
2019-01-20T08:06:49.367Z,8.73
2019-01-20T08:11:53.444Z,8.40
2019-01-20T08:16:57.297Z,8.27
2019-01-20T08:22:01.144Z,7.63
2019-01-20T08:28:02.231Z,9.57
2019-01-20T08:33:06.000Z,9.43
2019-01-20T08:38:09.901Z,10.33
2019-01-20T08:43:13.658Z,12.30
2019-01-20T08:48:19.672Z,12.10
2019-01-20T08:53:23.440Z,11.03
2019-01-20T08:58:27.438Z,11.43
2019-01-20T09:03:31.534Z,11.33
2019-01-20T09:08:35.663Z,11.87
2019-01-20T09:13:41.619Z,12.90
2019-01-20T09:18:46.014Z,12.03
2019-01-20T09:23:50.175Z,11.67
2019-01-20T09:28:53.908Z,15.00
2019-01-20T09:34:00.769Z,11.60
2019-01-20T09:39:09.347Z,11.90
2019-01-20T09:44:14.442Z,10.93
2019-01-20T09:49:18.733Z,13.20
2019-01-20T09:54:22.827Z,10.57
2019-01-20T09:59:26.687Z,10.30
2019-01-20T10:04:35.200Z,10.37
2019-01-20T10:09:54.593Z,9.93
2019-01-20T10:14:58.751Z,10.73
2019-01-20T10:20:04.102Z,10.73
2019-01-20T10:25:14.930Z,10.27
2019-01-20T10:30:19.858Z,9.57
2019-01-20T10:35:27.305Z,9.68
2019-01-20T10:40:32.305Z,10.20
2019-01-20T10:45:36.440Z,9.97
2019-01-20T10:50:40.363Z,9.40
2019-01-20T10:55:44.178Z,11.40
2019-01-20T11:00:48.004Z,9.67
2019-01-20T11:05:51.881Z,9.60
2019-01-20T11:10:55.714Z,8.57
2019-01-20T11:15:59.645Z,11.43
2019-01-20T11:21:03.508Z,8.80
2019-01-20T11:26:07.441Z,8.97
2019-01-20T11:31:11.258Z,8.20
2019-01-20T11:36:15.086Z,9.05
2019-01-20T11:41:18.968Z,8.27
2019-01-20T11:46:25.079Z,9.60
2019-01-20T11:51:34.365Z,8.20
2019-01-20T11:56:38.192Z,8.27
2019-01-20T12:01:42.054Z,9.63
2019-01-20T12:06:47.890Z,8.40
2019-01-20T12:11:51.787Z,11.07
2019-01-20T12:16:56.999Z,8.20
2019-01-20T12:22:00.973Z,9.27
2019-01-20T12:27:04.969Z,10.47
2019-01-20T12:32:08.742Z,8.43
2019-01-20T12:37:12.595Z,9.07
2019-01-20T12:42:16.391Z,8.97
2019-01-20T12:47:20.140Z,8.83
2019-01-20T12:52:23.924Z,8.90
2019-01-20T12:57:31.707Z,8.97
2019-01-20T13:02:35.738Z,8.97
2019-01-20T13:07:39.549Z,11.17
2019-01-20T13:12:43.548Z,10.07
2019-01-20T13:18:06.455Z,9.47
2019-01-20T13:23:22.637Z,9.37
2019-01-20T13:28:26.712Z,10.00
2019-01-20T13:33:30.517Z,10.07
2019-01-20T13:38:34.314Z,9.75
2019-01-20T13:43:38.227Z,10.15
2019-01-20T13:48:41.962Z,9.65
2019-01-20T13:53:45.782Z,9.93
2019-01-20T13:58:49.630Z,10.20
2019-01-20T14:03:53.362Z,9.93
2019-01-20T14:08:57.183Z,9.40
2019-01-20T14:14:01.044Z,10.17
2019-01-20T14:19:04.893Z,10.30
2019-01-20T14:24:08.764Z,10.20
2019-01-20T14:29:12.557Z,11.67
2019-01-20T14:34:16.369Z,11.60
2019-01-20T14:39:20.258Z,10.83
2019-01-20T14:44:24.073Z,11.17
2019-01-20T14:49:27.836Z,11.00
2019-01-20T14:54:31.582Z,10.97
2019-01-20T14:59:35.376Z,11.57
2019-01-20T15:04:39.356Z,12.17
2019-01-20T15:09:43.101Z,11.33
2019-01-20T15:14:47.791Z,10.33
2019-01-20T15:19:51.597Z,11.33
2019-01-20T15:24:55.357Z,10.10
2019-01-20T15:29:59.334Z,10.87
2019-01-20T15:35:03.306Z,10.77
2019-01-20T15:40:08.081Z,11.63
2019-01-20T15:45:16.524Z,11.03
2019-01-20T15:50:20.666Z,10.73
2019-01-20T15:55:24.558Z,12.00
2019-01-20T16:00:30.392Z,9.83
2019-01-20T16:05:34.128Z,12.03
2019-01-20T16:10:37.946Z,12.13
2019-01-20T16:15:41.743Z,12.67
2019-01-20T16:20:45.480Z,15.83
2019-01-20T16:25:49.235Z,16.73
2019-01-20T16:30:53.037Z,12.50
2019-01-20T16:35:56.797Z,15.27
2019-01-20T16:41:00.593Z,14.67
2019-01-20T16:46:04.374Z,13.30
2019-01-20T16:51:08.128Z,13.07
2019-01-20T16:56:11.915Z,14.27
2019-01-20T17:01:15.811Z,12.87
2019-01-20T17:06:19.605Z,11.60
2019-01-20T17:11:23.361Z,10.90
2019-01-20T17:16:27.126Z,12.63
2019-01-20T17:21:31.016Z,11.43
2019-01-20T17:26:35.011Z,10.50
2019-01-20T17:31:38.894Z,9.50
2019-01-20T17:36:42.695Z,11.30
2019-01-20T17:41:46.669Z,10.67
2019-01-20T17:46:50.522Z,10.40
2019-01-20T17:51:54.314Z,11.65
2019-01-20T17:56:58.275Z,9.63
2019-01-20T18:02:02.179Z,10.03
2019-01-20T18:07:06.126Z,10.60
2019-01-20T18:12:09.966Z,10.83
2019-01-20T18:17:13.824Z,11.00
2019-01-20T18:22:17.672Z,12.17
2019-01-20T18:27:21.464Z,12.17
2019-01-20T18:32:25.247Z,12.97
2019-01-20T18:37:29.001Z,13.57
2019-01-20T18:42:32.817Z,16.13
2019-01-20T18:47:36.697Z,20.70
2019-01-20T18:52:40.532Z,15.47
2019-01-20T18:57:44.376Z,17.10
2019-01-20T19:02:48.142Z,16.60
2019-01-20T19:07:55.430Z,16.53
2019-01-20T19:12:57.542Z,14.43
2019-01-20T19:18:01.384Z,13.17
2019-01-20T19:23:05.646Z,15.53
2019-01-20T19:28:09.509Z,14.60
2019-01-20T19:33:13.402Z,14.97
2019-01-20T19:38:17.204Z,16.63
2019-01-20T19:43:21.030Z,16.47
2019-01-20T19:48:24.849Z,16.23
2019-01-20T19:53:28.686Z,18.33
2019-01-20T19:58:32.422Z,17.37
2019-01-20T20:03:36.187Z,16.17
2019-01-20T20:08:39.959Z,14.57
2019-01-20T20:13:43.780Z,15.67
2019-01-20T20:18:47.527Z,14.90
2019-01-20T20:23:51.309Z,13.87
2019-01-20T20:28:55.144Z,15.00
2019-01-20T20:33:58.918Z,15.47
2019-01-20T20:39:02.653Z,15.83
2019-01-20T20:44:06.502Z,17.27
2019-01-20T20:49:10.313Z,16.70
2019-01-20T20:54:14.207Z,17.33
2019-01-20T20:59:18.037Z,17.43
2019-01-20T21:04:21.981Z,16.13
2019-01-20T21:09:27.565Z,15.10
2019-01-20T21:14:31.428Z,15.20
2019-01-20T21:19:35.172Z,16.27
2019-01-20T21:24:39.197Z,15.00
2019-01-20T21:29:42.961Z,16.37
2019-01-20T21:34:46.818Z,17.13
2019-01-20T21:39:50.604Z,16.67
2019-01-20T21:44:54.377Z,15.13
2019-01-20T21:49:58.313Z,15.57
2019-01-20T21:55:02.186Z,15.20
2019-01-20T22:00:07.482Z,14.87
2019-01-20T22:05:11.703Z,14.83
2019-01-20T22:10:20.360Z,15.50
2019-01-20T22:15:24.208Z,16.17
2019-01-20T22:20:28.035Z,15.20
2019-01-20T22:25:31.780Z,12.70
2019-01-20T22:30:35.594Z,14.40
2019-01-20T22:35:39.364Z,15.77
2019-01-20T22:40:43.165Z,16.07
2019-01-20T22:45:47.005Z,14.50
2019-01-20T22:50:50.794Z,14.17
2019-01-20T22:55:54.558Z,15.43
2019-01-20T23:01:03.220Z,15.60
2019-01-20T23:06:07.234Z,14.83
2019-01-20T23:11:11.045Z,14.83
2019-01-20T23:16:14.938Z,15.65
2019-01-20T23:21:18.725Z,15.40
2019-01-20T23:26:22.434Z,15.40
2019-01-20T23:31:26.193Z,15.37
2019-01-20T23:36:29.991Z,14.67
2019-01-20T23:41:33.777Z,14.90
2019-01-20T23:46:37.531Z,13.23
2019-01-20T23:51:41.301Z,14.13
2019-01-20T23:56:45.151Z,14.67
